• Join FlightAware (Why Join?)
  • Login
  • US Flag 
08:27AM EDT


 

Airport Tracker/Info


-or-


 

Live Flight TrackerFlight Track Log ✈ N860BA ✈ 04-May-2013 ✈ KPWK - KOMA

Flight Track Log - Related Links

Times and Time Zones

All times are in EDT time to prevent confusion due to time zone crossing. See the N860BA flight status page for this flight to view local times or setup timezone preferences in your user account.

Time Position Orientation Groundspeed Altitude Reporting Facility
EDT Latitude Longitude Course Direction KTS MPH feet Rate Location/Type
04:48PM 42.1667 -87.8667 11° North 230 265 3,600  Level Chicago TRACON
04:49PM 42.2000 -87.9333 304° West 280 322 7,400 4,080 Climbing Chicago TRACON
04:49PM 42.1947 -87.9636 257° West 282 325 8,400 3,540 Climbing Chicago Center
04:50PM 42.1733 -88.0742 255° West 305 351 12,000 3,480 Climbing Chicago Center
04:51PM 42.1333 -88.1889 245° Southwest 341 392 15,600 3,420 Climbing Chicago Center
04:52PM 42.0883 -88.3083 243° Southwest 357 411 19,100 3,180 Climbing Chicago Center
04:53PM 42.0383 -88.4261 240° Southwest 366 421 22,200 1,860 Climbing Chicago Center
04:54PM 41.9858 -88.5486 240° Southwest 377 434 23,000 1,020 Climbing Chicago Center
04:55PM 41.9200 -88.7042 240° Southwest 397 457 24,400 1,860 Climbing Chicago Center
04:56PM 41.8742 -88.8364 245° Southwest 401 461 26,900 2,460 Climbing Chicago Center
04:57PM 41.8764 -88.9878 271° West 410 472 29,500 2,340 Climbing Chicago Center
04:58PM 41.8722 -89.1397 268° West 411 473 31,800 2,160 Climbing Chicago Center
04:59PM 41.8661 -89.3253 268° West 415 478 34,000 1,020 Climbing Chicago Center
05:00PM 41.8594 -89.4953 267° West 457 526 34,000  Level Chicago Center
05:02PM 41.8514 -89.6775 267° West 486 559 34,000  Level Chicago Center
05:03PM 41.8447 -89.8628 267° West 500 575 34,000  Level Chicago Center
05:04PM 41.8389 -90.0572 268° West 493 567 34,000  Level Chicago Center
05:05PM 41.8319 -90.2336 267° West 479 551 34,000  Level Chicago Center
05:06PM 41.8239 -90.4094 267° West 474 545 34,000  Level Chicago Center
05:07PM 41.8167 -90.5847 267° West 473 544 34,000  Level Chicago Center
05:08PM 41.8056 -90.7650 265° West 486 559 34,000  Level Chicago Center
05:09PM 41.7953 -90.9750 266° West 476 548 34,000  Level Chicago Center
05:10PM 41.7861 -91.1503 266° West 476 548 34,000  Level Chicago Center
05:11PM 41.7778 -91.3239 266° West 471 542 34,000  Level Chicago Center
05:12PM 41.7681 -91.4989 266° West 472 543 34,000  Level Chicago Center
05:13PM 41.7589 -91.6733 266° West 472 543 34,000  Level Chicago Center
05:14PM 41.7478 -91.8503 265° West 478 550 34,000  Level Chicago Center
05:15PM 41.7350 -92.0639 265° West 481 554 34,000  Level Chicago Center
05:16PM 41.7242 -92.2450 265° West 485 558 34,000  Level Chicago Center
05:17PM 41.7122 -92.4272 265° West 491 565 34,000  Level Chicago Center
05:18PM 41.7011 -92.6122 265° West 496 571 34,000  Level Chicago Center
05:18PM 41.6953 -92.7256 266° West 498 573 34,000  Level Minneapolis Center
05:20PM 41.6847 -92.8786 265° West 494 568 34,000  Level Minneapolis Center
05:21PM 41.6708 -93.0894 265° West 485 558 34,000  Level Minneapolis Center
05:22PM 41.6769 -93.2656 273° West 481 554 34,000  Level Minneapolis Center
05:23PM 41.6908 -93.4408 276° West 478 550 34,000 -300 Level Minneapolis Center
05:24PM 41.7061 -93.6147 277° West 477 549 33,400 -1,020 Descending Minneapolis Center
05:25PM 41.7186 -93.7981 275° West 499 574 32,000 -1,440 Descending Minneapolis Center
05:26PM 41.6900 -93.9864 259° West 502 578 30,500 -2,220 Descending Minneapolis Center
05:27PM 41.6642 -94.1539 258° West 492 566 27,500 -3,000 Descending Minneapolis Center
05:28PM 41.6381 -94.3278 259° West 461 531 24,400 -2,760 Descending Minneapolis Center
05:29PM 41.6189 -94.4542 259° West 442 509 22,000 -3,180 Descending Minneapolis Center
05:30PM 41.5847 -94.6683 258° West 424 488 17,900 -2,460 Descending Minneapolis Center
05:31PM 41.5614 -94.8233 259° West 428 493 17,000 -1,020 Descending Minneapolis Center
05:31PM 41.5647 -94.9042 273° West 439 505 16,500 -1,140 Descending Minneapolis Center
05:32PM 41.5372 -94.9811 244° Southwest 434 499 15,900 -1,440 Descending Minneapolis Center
05:32PM 41.5478 -95.0431 283° West 412 474 15,200 -3,240 Descending Minneapolis Center
05:33PM 41.5403 -95.1175 262° West 380 437 12,600 -3,720 Descending Minneapolis Center
05:33PM 41.5533 -95.1789 286° West 321 369 11,100 -3,780 Descending Minneapolis Center
05:34PM 41.5500 -95.2381 266° West 345 397 8,800 -3,180 Descending Minneapolis Center
05:35PM 41.5411 -95.3561 264° West 332 382 6,000 -1,920 Descending Minneapolis Center
05:35PM 41.5114 -95.4100 234° Southwest 291 335 6,000 -600 Level Minneapolis Center
05:36PM 41.4814 -95.4278 204° Southwest 304 350 5,400 -1,140 Descending Minneapolis Center
05:37PM 41.4217 -95.4944 220° Southwest 287 330 4,300 -720 Descending Minneapolis Center
05:38PM 41.3636 -95.5586 220° Southwest 279 321 4,000 -240 Descending Minneapolis Center
05:38PM 41.3439 -95.5917 232° Southwest 268 308 4,000  Level Minneapolis Center
05:39PM 41.3056 -95.6228 211° Southwest 274 315 4,000 -480 Level Minneapolis Center
05:40PM 41.2433 -95.6833 216° Southwest 273 314 3,200 -600 Descending Minneapolis Center
05:41PM 41.1742 -95.7328 208° Southwest 279 321 2,900 -240 Descending Minneapolis Center
05:41PM 41.1739 -95.7703 269° West 217 250 2,900 180 Level Minneapolis Center
05:42PM 41.2008 -95.7914 329° Northwest 203 234 3,100 -240 Climbing Minneapolis Center
05:43PM 41.2331 -95.8242 323° Northwest 171 197 2,500 -600 Descending Minneapolis Center
05:44PM 41.2608 -95.8508 324° Northwest 146 168 1,900 -720 Descending Minneapolis Center
05:45PM 41.2922 -95.8803 325° Northwest 127 146 1,000 -780 Descending Minneapolis Center
05:47PM 41.3000 -95.8833 327° Northwest  Level FlightAware Approximate